createdAt,value
2023-03-20T00:00:47.226Z,40.68
2023-03-20T00:03:14.143Z,40.91
2023-03-20T00:08:08.984Z,40.89
2023-03-20T00:10:37.254Z,40.63
2023-03-20T00:13:04.273Z,40.39
2023-03-20T00:15:35.721Z,40.74
2023-03-20T00:18:02.620Z,40.75
2023-03-20T00:20:31.551Z,40.58
2023-03-20T00:22:58.440Z,40.67
2023-03-20T00:25:25.700Z,40.26
2023-03-20T00:27:52.747Z,40.36
2023-03-20T00:30:21.821Z,40.67
2023-03-20T00:32:49.720Z,40.83
2023-03-20T00:35:21.357Z,40.45
2023-03-20T00:37:48.037Z,40.39
2023-03-20T00:40:15.259Z,40.54
2023-03-20T00:42:42.674Z,40.75
2023-03-20T00:45:13.482Z,40.84
2023-03-20T00:47:42.128Z,40.63
2023-03-20T00:50:20.946Z,40.83
2023-03-20T00:52:48.249Z,40.88
2023-03-20T00:55:14.936Z,40.42
2023-03-20T00:57:48.222Z,40.90
2023-03-20T01:00:27.715Z,40.99
2023-03-20T01:05:21.223Z,41.33
2023-03-20T01:07:48.031Z,41.36
2023-03-20T01:10:14.695Z,41.16
2023-03-20T01:12:42.260Z,41.12
2023-03-20T01:15:16.643Z,41.49
2023-03-20T01:17:43.312Z,41.33
2023-03-20T01:20:21.753Z,41.43
2023-03-20T01:22:48.410Z,41.24
2023-03-20T01:25:15.122Z,41.68
2023-03-20T01:27:43.658Z,41.64
2023-03-20T01:30:17.594Z,41.73
2023-03-20T01:32:46.543Z,41.54
2023-03-20T01:35:14.796Z,41.31
2023-03-20T01:37:41.949Z,41.48
2023-03-20T01:40:17.735Z,41.54
2023-03-20T01:42:44.381Z,41.47
2023-03-20T01:45:19.336Z,42.00
2023-03-20T01:47:46.031Z,41.88
2023-03-20T01:50:22.848Z,41.44
2023-03-20T01:52:51.609Z,42.04
2023-03-20T01:55:19.381Z,41.81
2023-03-20T01:57:46.102Z,41.92
2023-03-20T02:00:15.770Z,41.95
2023-03-20T02:02:44.117Z,42.00
2023-03-20T02:05:11.817Z,41.72
2023-03-20T02:07:39.529Z,42.13
2023-03-20T02:10:08.603Z,41.99
2023-03-20T02:12:36.617Z,42.10
2023-03-20T02:15:03.995Z,41.96
2023-03-20T02:17:30.861Z,41.79
2023-03-20T02:20:07.536Z,42.34
2023-03-20T02:22:49.278Z,41.95
2023-03-20T02:25:34.713Z,41.80
2023-03-20T02:28:14.513Z,41.90
2023-03-20T02:30:47.142Z,42.27
2023-03-20T02:33:26.003Z,42.15
2023-03-20T02:36:16.240Z,42.31
2023-03-20T02:38:42.850Z,42.00
2023-03-20T02:41:09.477Z,42.19
2023-03-20T02:43:49.994Z,42.38
2023-03-20T02:46:31.600Z,42.28
2023-03-20T02:48:58.354Z,42.39
2023-03-20T02:51:36.187Z,42.41
2023-03-20T02:54:21.375Z,42.41
2023-03-20T02:56:55.360Z,42.65
2023-03-20T02:59:31.072Z,42.58
2023-03-20T03:02:33.062Z,42.88
2023-03-20T03:05:01.757Z,43.08
2023-03-20T03:07:31.112Z,42.87
2023-03-20T03:10:03.083Z,42.77
2023-03-20T03:12:35.954Z,43.09
2023-03-20T03:15:04.090Z,42.91
2023-03-20T03:17:33.160Z,43.03
2023-03-20T03:20:02.869Z,43.14
2023-03-20T03:22:29.533Z,43.10
2023-03-20T03:24:56.329Z,43.18
2023-03-20T03:27:37.598Z,43.09
2023-03-20T03:30:26.247Z,42.83
2023-03-20T03:33:07.525Z,43.35
2023-03-20T03:35:34.637Z,43.03
2023-03-20T03:38:12.504Z,43.39
2023-03-20T03:40:52.888Z,43.63
2023-03-20T03:43:34.660Z,43.25
2023-03-20T03:46:04.012Z,43.47
2023-03-20T03:48:43.231Z,43.29
2023-03-20T03:51:13.231Z,43.58
2023-03-20T03:54:06.219Z,43.30
2023-03-20T03:56:35.200Z,43.25
2023-03-20T03:59:04.773Z,43.16
2023-03-20T04:01:43.525Z,43.09
2023-03-20T04:04:11.205Z,43.25
2023-03-20T04:06:37.971Z,43.48
2023-03-20T04:09:04.634Z,43.47
2023-03-20T04:11:31.483Z,43.33
2023-03-20T04:13:58.138Z,43.49
2023-03-20T04:16:26.049Z,43.50
2023-03-20T04:18:53.100Z,43.38
2023-03-20T04:21:20.122Z,43.65
2023-03-20T04:23:47.049Z,43.69
2023-03-20T04:26:13.820Z,43.50
2023-03-20T04:28:40.565Z,43.68
2023-03-20T04:31:07.498Z,43.76
2023-03-20T04:33:34.156Z,44.07
2023-03-20T04:36:00.991Z,43.96
2023-03-20T04:38:27.692Z,44.06
2023-03-20T04:40:54.459Z,43.74
2023-03-20T04:43:21.189Z,43.89
2023-03-20T04:45:47.963Z,44.06
2023-03-20T04:48:14.673Z,43.76
2023-03-20T04:50:41.512Z,44.12
2023-03-20T04:53:08.214Z,44.30
2023-03-20T04:55:35.156Z,44.25
2023-03-20T04:58:02.077Z,44.00
2023-03-20T05:00:28.706Z,44.25
2023-03-20T05:02:55.400Z,44.25
2023-03-20T05:05:22.660Z,44.33
2023-03-20T05:07:49.802Z,44.00
2023-03-20T05:10:16.814Z,44.36
2023-03-20T05:12:43.532Z,44.02
2023-03-20T05:15:10.572Z,44.46
2023-03-20T05:17:37.368Z,44.34
2023-03-20T05:20:04.199Z,44.50
2023-03-20T05:22:30.925Z,44.25
2023-03-20T05:24:57.542Z,44.08
2023-03-20T05:27:24.203Z,44.65
2023-03-20T05:29:51.252Z,44.38
2023-03-20T05:32:18.004Z,44.80
2023-03-20T05:34:44.613Z,44.39
2023-03-20T05:37:11.238Z,44.55
2023-03-20T05:39:38.024Z,44.80
2023-03-20T05:42:04.831Z,44.64
2023-03-20T05:44:31.682Z,43.70
2023-03-20T05:46:58.311Z,44.51
2023-03-20T05:49:24.910Z,44.41
2023-03-20T05:51:51.603Z,44.68
2023-03-20T05:54:18.361Z,44.84
2023-03-20T05:56:45.082Z,44.86
2023-03-20T05:59:12.076Z,44.98
2023-03-20T06:01:44.095Z,44.81
2023-03-20T06:04:10.863Z,45.08
2023-03-20T06:06:38.206Z,45.08
2023-03-20T06:09:05.252Z,45.21
2023-03-20T06:11:34.409Z,45.15
2023-03-20T06:14:02.339Z,44.89
2023-03-20T06:16:29.132Z,44.99
2023-03-20T06:18:55.932Z,45.38
2023-03-20T06:21:22.593Z,45.41
2023-03-20T06:23:49.201Z,45.10
2023-03-20T06:26:15.969Z,45.10
2023-03-20T06:28:42.849Z,45.06
2023-03-20T06:31:10.230Z,45.51
2023-03-20T06:33:38.301Z,45.13
2023-03-20T06:36:05.201Z,45.12
2023-03-20T06:38:31.871Z,45.27
2023-03-20T06:40:58.624Z,45.58
2023-03-20T06:43:25.447Z,45.52
2023-03-20T06:45:52.706Z,45.16
2023-03-20T06:48:22.282Z,45.54
2023-03-20T06:50:49.479Z,45.60
2023-03-20T06:53:17.161Z,45.59
2023-03-20T06:55:47.315Z,45.67
2023-03-20T06:58:13.920Z,45.19
2023-03-20T07:00:40.564Z,45.65
2023-03-20T07:03:07.193Z,45.86
2023-03-20T07:05:34.192Z,46.00
2023-03-20T07:08:01.258Z,45.92
2023-03-20T07:10:28.632Z,46.00
2023-03-20T07:12:55.309Z,45.95
2023-03-20T07:15:22.319Z,45.77
2023-03-20T07:17:49.090Z,46.36
2023-03-20T07:20:15.954Z,46.03
2023-03-20T07:22:43.020Z,46.07
2023-03-20T07:25:10.980Z,45.66
2023-03-20T07:27:38.242Z,45.40
2023-03-20T07:30:05.455Z,45.66
2023-03-20T07:32:32.176Z,45.36
2023-03-20T07:34:58.921Z,44.71
2023-03-20T07:37:25.639Z,45.07
2023-03-20T07:39:52.272Z,44.76
2023-03-20T07:42:19.041Z,44.70
2023-03-20T07:44:45.674Z,44.39
2023-03-20T07:47:12.315Z,44.53
2023-03-20T07:49:39.084Z,44.53
2023-03-20T07:52:05.825Z,44.51
2023-03-20T07:54:32.522Z,44.56
2023-03-20T07:56:59.182Z,44.32
2023-03-20T07:59:26.269Z,44.70
2023-03-20T08:01:53.090Z,44.42
2023-03-20T08:04:22.811Z,44.27
2023-03-20T08:06:51.124Z,44.19
2023-03-20T08:09:18.474Z,44.13
2023-03-20T08:11:53.706Z,44.33
2023-03-20T08:14:20.324Z,44.12
2023-03-20T08:16:47.194Z,44.15
2023-03-20T08:19:13.892Z,43.68
2023-03-20T08:21:56.399Z,44.04
2023-03-20T08:24:23.081Z,43.93
2023-03-20T08:26:50.321Z,43.88
2023-03-20T08:29:19.402Z,43.98
2023-03-20T08:31:51.364Z,43.87
2023-03-20T08:34:18.066Z,43.59
2023-03-20T08:36:44.824Z,43.67
2023-03-20T08:39:11.444Z,43.66
2023-03-20T08:41:45.935Z,43.48
2023-03-20T08:44:13.391Z,43.47
2023-03-20T08:46:40.164Z,43.31
2023-03-20T08:49:07.425Z,43.14
2023-03-20T08:51:34.269Z,43.14
2023-03-20T08:54:01.404Z,43.13
2023-03-20T08:56:28.116Z,43.00
2023-03-20T08:58:56.157Z,42.92
2023-03-20T09:01:23.362Z,42.63
2023-03-20T09:03:50.056Z,42.71
2023-03-20T09:06:16.843Z,42.78
2023-03-20T09:08:43.585Z,42.77
2023-03-20T09:11:10.674Z,42.70
2023-03-20T09:13:37.351Z,42.42
2023-03-20T09:16:04.245Z,42.76
2023-03-20T09:18:31.048Z,42.79
2023-03-20T09:20:57.794Z,42.74
2023-03-20T09:23:24.656Z,42.49
2023-03-20T09:25:51.260Z,42.23
2023-03-20T09:28:17.947Z,42.63
2023-03-20T09:30:45.644Z,42.20
2023-03-20T09:33:12.417Z,42.55
2023-03-20T09:35:39.736Z,42.19
2023-03-20T09:38:07.071Z,42.36
2023-03-20T09:40:42.884Z,42.08
2023-03-20T09:43:23.224Z,42.40
2023-03-20T09:45:55.309Z,42.05
2023-03-20T09:48:31.947Z,42.49
2023-03-20T09:51:03.452Z,42.34
2023-03-20T09:53:38.976Z,42.27
2023-03-20T09:56:09.764Z,42.43
2023-03-20T09:58:37.886Z,42.50
2023-03-20T10:01:05.769Z,42.30
2023-03-20T10:03:44.281Z,42.34
2023-03-20T10:06:15.458Z,42.51
2023-03-20T10:08:43.230Z,42.60
2023-03-20T10:11:23.856Z,42.20
2023-03-20T10:14:09.266Z,42.59
2023-03-20T10:16:36.190Z,42.42
2023-03-20T10:19:08.317Z,42.42
2023-03-20T10:21:57.651Z,42.71
2023-03-20T10:24:29.557Z,42.74
2023-03-20T10:26:58.567Z,42.59
2023-03-20T10:29:25.783Z,42.65
2023-03-20T10:32:11.347Z,42.90
2023-03-20T10:34:40.755Z,42.75
2023-03-20T10:37:22.565Z,42.54
2023-03-20T10:40:08.030Z,42.83
2023-03-20T10:42:38.033Z,42.70
2023-03-20T10:45:08.517Z,42.92
2023-03-20T10:47:38.791Z,43.23
2023-03-20T10:50:07.776Z,42.80
2023-03-20T10:52:36.413Z,43.32
2023-03-20T10:55:18.721Z,43.07
2023-03-20T10:57:48.675Z,43.45
2023-03-20T11:00:22.555Z,43.11
2023-03-20T11:02:49.297Z,43.20
2023-03-20T11:05:21.570Z,43.33
2023-03-20T11:07:57.860Z,43.43
2023-03-20T11:10:26.758Z,43.20
2023-03-20T11:12:53.676Z,43.50
2023-03-20T11:15:23.965Z,43.66
2023-03-20T11:17:51.927Z,43.46
2023-03-20T11:20:18.845Z,43.37
2023-03-20T11:22:47.573Z,43.63
2023-03-20T11:25:43.751Z,43.64
2023-03-20T11:28:19.689Z,43.29
2023-03-20T11:31:03.489Z,43.66
2023-03-20T11:33:31.943Z,43.17
2023-03-20T11:35:59.445Z,43.14
2023-03-20T11:38:26.196Z,43.31
2023-03-20T11:40:53.868Z,43.28
2023-03-20T11:43:22.136Z,43.15
2023-03-20T11:45:51.091Z,43.13
2023-03-20T11:48:18.306Z,43.03
2023-03-20T11:51:05.273Z,43.15
2023-03-20T11:53:34.436Z,43.11
2023-03-20T11:56:11.304Z,43.40
2023-03-20T11:59:07.996Z,43.03
2023-03-20T12:01:52.617Z,43.16
2023-03-20T12:04:30.270Z,43.01
2023-03-20T12:07:03.874Z,43.11
2023-03-20T12:09:57.139Z,42.62
2023-03-20T12:12:42.424Z,42.72
2023-03-20T12:15:18.306Z,42.66
2023-03-20T12:17:52.543Z,43.08
2023-03-20T12:20:37.409Z,43.07
2023-03-20T12:23:11.111Z,42.96
2023-03-20T12:25:37.813Z,42.83
2023-03-20T12:28:12.193Z,42.79
2023-03-20T12:30:49.520Z,42.91
2023-03-20T12:33:24.439Z,42.69
2023-03-20T12:35:52.488Z,42.55
2023-03-20T12:38:30.632Z,42.75
2023-03-20T12:41:09.384Z,42.96
2023-03-20T12:43:44.083Z,42.59
2023-03-20T12:46:20.266Z,42.80
2023-03-20T12:48:57.412Z,42.74
2023-03-20T12:51:27.465Z,42.58
2023-03-20T12:53:57.333Z,42.97
2023-03-20T12:56:47.498Z,42.78
2023-03-20T12:59:14.274Z,42.78
2023-03-20T13:01:57.727Z,42.70
2023-03-20T13:04:43.008Z,42.72
2023-03-20T13:07:12.948Z,42.92
2023-03-20T13:09:46.100Z,42.66
2023-03-20T13:12:22.129Z,42.94
2023-03-20T13:15:04.236Z,43.12
2023-03-20T13:17:39.834Z,43.02
2023-03-20T13:20:13.088Z,43.06
2023-03-20T13:22:53.966Z,43.16
2023-03-20T13:25:23.911Z,43.00
2023-03-20T13:28:01.946Z,42.94
2023-03-20T13:30:37.583Z,43.46
2023-03-20T13:33:08.062Z,43.11
2023-03-20T13:35:41.306Z,43.20
2023-03-20T13:38:14.407Z,43.13
2023-03-20T13:40:51.089Z,43.26
2023-03-20T13:43:22.205Z,43.53
2023-03-20T13:45:59.810Z,43.57
2023-03-20T13:48:32.416Z,43.75
2023-03-20T13:51:10.605Z,43.68
2023-03-20T13:53:41.716Z,43.84
2023-03-20T13:56:14.369Z,44.13
2023-03-20T13:58:54.700Z,44.16
2023-03-20T14:01:47.525Z,44.17
2023-03-20T14:04:20.493Z,43.89
2023-03-20T14:06:50.645Z,44.37
2023-03-20T14:09:25.585Z,44.45
2023-03-20T14:12:02.264Z,44.48
2023-03-20T14:14:45.478Z,44.33
2023-03-20T14:17:21.456Z,44.16
2023-03-20T14:19:50.064Z,43.87
2023-03-20T14:22:18.739Z,44.23
2023-03-20T14:24:51.119Z,44.03
2023-03-20T14:27:29.813Z,44.17
2023-03-20T14:30:07.222Z,44.00
2023-03-20T14:32:35.069Z,44.25
2023-03-20T14:35:21.980Z,44.07
2023-03-20T14:38:03.414Z,43.90
2023-03-20T14:40:32.030Z,44.09
2023-03-20T14:43:01.956Z,43.91
2023-03-20T14:45:30.299Z,43.87
2023-03-20T14:48:02.232Z,43.81
2023-03-20T14:50:32.579Z,43.92
2023-03-20T14:53:00.782Z,43.69
2023-03-20T14:55:28.506Z,44.09
2023-03-20T14:57:57.327Z,43.77
2023-03-20T15:00:27.734Z,43.62
2023-03-20T15:02:59.271Z,44.05
2023-03-20T15:05:29.624Z,43.59
2023-03-20T15:07:58.377Z,43.88
2023-03-20T15:10:26.598Z,44.04
2023-03-20T15:12:55.944Z,43.92
2023-03-20T15:15:24.665Z,43.98
2023-03-20T15:17:51.678Z,43.70
2023-03-20T15:20:20.120Z,43.59
2023-03-20T15:22:49.004Z,44.12
2023-03-20T15:25:17.920Z,43.60
2023-03-20T15:27:45.316Z,44.34
2023-03-20T15:30:15.755Z,44.10
2023-03-20T15:32:44.159Z,44.14
2023-03-20T15:35:13.514Z,43.95
2023-03-20T15:37:41.016Z,43.92
2023-03-20T15:40:11.173Z,44.30
2023-03-20T15:42:38.174Z,43.97
2023-03-20T15:45:08.251Z,43.98
2023-03-20T15:47:35.577Z,43.72
2023-03-20T15:50:03.119Z,43.76
2023-03-20T15:52:33.154Z,43.77
2023-03-20T15:55:04.852Z,43.75
2023-03-20T15:57:35.602Z,44.17
2023-03-20T16:00:05.299Z,44.03
2023-03-20T16:02:32.324Z,43.80
2023-03-20T16:04:59.397Z,44.15
2023-03-20T16:07:32.041Z,43.90
2023-03-20T16:09:59.669Z,43.58
2023-03-20T16:12:33.045Z,43.94
2023-03-20T16:15:02.870Z,44.36
2023-03-20T16:17:32.803Z,44.64
2023-03-20T16:20:04.443Z,44.51
2023-03-20T16:22:35.600Z,44.53
2023-03-20T16:25:09.455Z,44.65
2023-03-20T16:27:36.915Z,44.85
2023-03-20T16:30:09.803Z,44.85
2023-03-20T16:32:48.555Z,44.78
2023-03-20T16:35:19.446Z,44.88
2023-03-20T16:37:50.944Z,44.71
2023-03-20T16:40:28.372Z,44.91
2023-03-20T16:42:59.593Z,44.72
2023-03-20T16:45:32.456Z,44.63
2023-03-20T16:48:13.682Z,44.51
2023-03-20T16:50:43.793Z,44.81
2023-03-20T16:53:26.668Z,44.65
2023-03-20T16:56:01.464Z,44.88
2023-03-20T16:58:32.957Z,44.50
2023-03-20T17:01:05.604Z,44.71
2023-03-20T17:03:38.440Z,44.48
2023-03-20T17:06:07.459Z,44.66
2023-03-20T17:08:36.340Z,44.44
2023-03-20T17:11:05.957Z,44.70
2023-03-20T17:13:32.901Z,44.73
2023-03-20T17:16:00.016Z,44.98
2023-03-20T17:18:28.672Z,44.70
2023-03-20T17:20:55.574Z,44.65
2023-03-20T17:23:23.062Z,44.63
2023-03-20T17:25:50.905Z,44.62
2023-03-20T17:28:20.770Z,44.57
2023-03-20T17:30:48.785Z,45.02
2023-03-20T17:33:17.075Z,44.75
2023-03-20T17:35:44.182Z,44.87
2023-03-20T17:38:16.474Z,44.84
2023-03-20T17:40:43.480Z,44.91
2023-03-20T17:43:57.263Z,44.66
2023-03-20T17:46:27.700Z,44.87
2023-03-20T17:48:58.231Z,44.80
2023-03-20T17:51:25.576Z,44.96
2023-03-20T17:53:55.846Z,44.90
2023-03-20T17:56:22.887Z,44.92
2023-03-20T17:58:50.868Z,45.28
2023-03-20T18:01:18.128Z,45.13
2023-03-20T18:03:45.171Z,45.28
2023-03-20T18:06:16.698Z,45.07
2023-03-20T18:08:43.610Z,45.10
2023-03-20T18:11:10.677Z,45.48
2023-03-20T18:13:37.797Z,45.21
2023-03-20T18:16:04.904Z,45.31
2023-03-20T18:18:32.392Z,45.29
2023-03-20T18:20:59.687Z,45.33
2023-03-20T18:23:26.626Z,45.52
2023-03-20T18:25:53.512Z,45.73
2023-03-20T18:28:23.540Z,45.43
2023-03-20T18:30:51.106Z,45.71
2023-03-20T18:33:18.231Z,45.45
2023-03-20T18:35:45.495Z,45.61
2023-03-20T18:38:14.115Z,45.88
2023-03-20T18:40:42.913Z,45.74
2023-03-20T18:43:10.862Z,45.68
2023-03-20T18:45:39.455Z,45.78
2023-03-20T18:48:07.225Z,45.82
2023-03-20T18:50:37.974Z,45.50
2023-03-20T18:53:06.131Z,45.57
2023-03-20T18:55:33.109Z,45.51
2023-03-20T18:58:03.850Z,45.96
2023-03-20T19:00:36.246Z,46.01
2023-03-20T19:03:03.926Z,45.93
2023-03-20T19:05:31.572Z,45.97
2023-03-20T19:08:00.219Z,46.16
2023-03-20T19:10:27.519Z,46.01
2023-03-20T19:12:55.635Z,46.01
2023-03-20T19:15:23.623Z,45.89
2023-03-20T19:17:51.967Z,46.08
2023-03-20T19:20:22.213Z,45.85
2023-03-20T19:22:49.248Z,45.67
2023-03-20T19:25:16.300Z,45.70
2023-03-20T19:27:43.798Z,45.75
2023-03-20T19:30:23.224Z,46.12
2023-03-20T19:32:50.346Z,45.72
2023-03-20T19:38:04.771Z,46.09
2023-03-20T19:40:35.251Z,45.95
2023-03-20T19:43:03.841Z,46.10
2023-03-20T19:45:32.597Z,45.89
2023-03-20T19:47:59.772Z,45.87
2023-03-20T19:50:30.454Z,45.96
2023-03-20T19:52:58.195Z,46.19
2023-03-20T19:55:26.356Z,46.13
2023-03-20T19:57:54.889Z,45.94
2023-03-20T20:00:56.360Z,46.16
2023-03-20T20:03:17.109Z,45.78
2023-03-20T20:05:44.088Z,45.77
2023-03-20T20:08:26.161Z,45.85
2023-03-20T20:10:57.581Z,46.18
2023-03-20T20:13:26.164Z,45.86
2023-03-20T20:15:53.789Z,45.78
2023-03-20T20:18:21.736Z,45.87
2023-03-20T20:23:39.279Z,45.99
2023-03-20T20:26:08.227Z,46.08
2023-03-20T20:28:35.224Z,45.87
2023-03-20T20:31:02.513Z,46.18
2023-03-20T20:33:29.661Z,46.18
2023-03-20T20:36:38.203Z,46.19
2023-03-20T20:38:50.988Z,46.19
2023-03-20T20:41:18.689Z,46.47
2023-03-20T20:44:14.623Z,46.37
2023-03-20T20:46:35.505Z,46.39
2023-03-20T20:49:18.113Z,46.36
2023-03-20T20:51:46.523Z,46.24
2023-03-20T20:54:14.229Z,46.51
2023-03-20T20:56:41.422Z,46.57
2023-03-20T20:59:09.290Z,46.70
2023-03-20T21:01:36.824Z,46.56
2023-03-20T21:04:04.149Z,46.88
2023-03-20T21:07:03.369Z,46.80
2023-03-20T21:09:18.524Z,46.70
2023-03-20T21:11:46.508Z,46.52
2023-03-20T21:14:14.521Z,46.83
2023-03-20T21:16:41.735Z,46.59
2023-03-20T21:19:08.974Z,46.75
2023-03-20T21:21:36.169Z,46.67
2023-03-20T21:24:03.828Z,46.62
2023-03-20T21:26:31.174Z,46.55
2023-03-20T21:28:58.261Z,46.73
2023-03-20T21:31:29.546Z,46.60
2023-03-20T21:33:57.993Z,46.95
2023-03-20T21:36:25.162Z,47.03
2023-03-20T21:39:09.335Z,46.90
2023-03-20T21:41:38.141Z,46.68
2023-03-20T21:44:06.159Z,46.65
2023-03-20T21:47:18.070Z,46.97
2023-03-20T21:52:59.602Z,46.84
2023-03-20T21:55:45.916Z,46.71
2023-03-20T21:58:36.619Z,47.10
2023-03-20T22:03:45.702Z,46.73
2023-03-20T22:09:45.770Z,47.21
2023-03-20T22:31:55.224Z,47.46
2023-03-20T22:40:26.412Z,47.69
2023-03-20T22:42:51.543Z,47.84
2023-03-20T22:45:13.918Z,47.33
2023-03-20T22:47:41.246Z,47.61
2023-03-20T22:50:09.087Z,47.71
2023-03-20T22:52:48.234Z,47.17
2023-03-20T22:55:17.169Z,47.39
2023-03-20T22:57:56.197Z,47.45
2023-03-20T23:00:31.036Z,47.44
2023-03-20T23:03:13.710Z,47.38
2023-03-20T23:05:44.778Z,47.22
2023-03-20T23:08:12.267Z,47.23
2023-03-20T23:10:43.267Z,47.36
2023-03-20T23:13:10.847Z,47.09
2023-03-20T23:15:37.843Z,47.31
2023-03-20T23:18:05.261Z,46.81
2023-03-20T23:20:32.456Z,46.97
2023-03-20T23:22:59.409Z,46.95
2023-03-20T23:25:38.153Z,46.92
2023-03-20T23:28:07.555Z,46.72
2023-03-20T23:30:44.932Z,46.54
2023-03-20T23:33:15.048Z,46.65
2023-03-20T23:35:42.253Z,46.35
2023-03-20T23:38:09.279Z,46.24
2023-03-20T23:40:36.929Z,46.60
2023-03-20T23:43:04.149Z,46.52
2023-03-20T23:45:31.370Z,46.25
2023-03-20T23:47:58.561Z,46.42
2023-03-20T23:50:32.186Z,45.90
2023-03-20T23:53:13.575Z,46.20
2023-03-20T23:55:46.896Z,46.44
2023-03-20T23:58:14.252Z,46.11
